Time;durP1;ratioP1;P1;durP2;ratioP2;P2;SDS_P1;SDS_P2;PMS_P1;PMS_P2;Temp;Humidity;BMP_temperature;BMP_pressure;BME280_temperature;BME280_humidity;BME280_pressure;Samples;Min_cycle;Max_cycle;Signal;HPM_P1;HPM_P2
2022/03/01 00:00:47;;;;;;;12.95;10.05;;;;;;;;;;4948852;29;20065;-78
2022/03/01 00:03:12;;;;;;;13.15;10.57;;;;;;;;;;4937885;29;20058;-78
2022/03/01 00:05:38;;;;;;;11.93;10.02;;;;;;;;;;4949857;29;20126;-79
2022/03/01 00:08:05;;;;;;;12.25;10.95;;;;;;;;;;4946923;28;20493;-78
2022/03/01 00:10:31;;;;;;;12.30;10.02;;;;;;;;;;4919606;29;20082;-78
2022/03/01 00:12:56;;;;;;;13.73;10.32;;;;;;;;;;4948175;29;20470;-78
2022/03/01 00:15:22;;;;;;;11.43;9.85;;;;;;;;;;4942290;29;20058;-78
2022/03/01 00:17:48;;;;;;;11.98;9.75;;;;;;;;;;4946461;29;20134;-79
2022/03/01 00:20:15;;;;;;;12.82;10.30;;;;;;;;;;4955554;28;20048;-79
2022/03/01 00:22:41;;;;;;;14.07;10.32;;;;;;;;;;4947284;28;20031;-78
2022/03/01 00:25:07;;;;;;;11.98;9.88;;;;;;;;;;4945631;28;20401;-79
2022/03/01 00:27:33;;;;;;;13.70;10.52;;;;;;;;;;4945153;29;20032;-78
2022/03/01 00:29:59;;;;;;;12.90;9.95;;;;;;;;;;4952960;29;20051;-79
2022/03/01 00:32:25;;;;;;;13.43;10.60;;;;;;;;;;4964202;28;20059;-79
2022/03/01 00:34:51;;;;;;;13.02;11.15;;;;;;;;;;4939378;29;20134;-79
2022/03/01 00:37:17;;;;;;;11.90;9.63;;;;;;;;;;4945649;28;20054;-78
2022/03/01 00:39:42;;;;;;;12.68;10.48;;;;;;;;;;4934676;29;20039;-79
2022/03/01 00:42:08;;;;;;;14.80;10.65;;;;;;;;;;4939374;29;20047;-79
2022/03/01 00:44:36;;;;;;;14.95;10.65;;;;;;;;;;4949200;29;20094;-79
2022/03/01 00:47:02;;;;;;;13.40;10.63;;;;;;;;;;4952847;29;20050;-79
2022/03/01 00:49:28;;;;;;;14.57;11.00;;;;;;;;;;4931788;29;20556;-79
2022/03/01 00:51:54;;;;;;;13.90;10.75;;;;;;;;;;4935260;29;20051;-79
2022/03/01 00:54:20;;;;;;;13.60;10.35;;;;;;;;;;4939196;29;20742;-79
2022/03/01 00:56:46;;;;;;;13.55;10.88;;;;;;;;;;4947494;29;20085;-79
2022/03/01 00:59:12;;;;;;;12.50;10.75;;;;;;;;;;4944347;29;20035;-79
2022/03/01 01:01:37;;;;;;;14.95;11.88;;;;;;;;;;4944776;29;20478;-79
2022/03/01 01:04:04;;;;;;;14.82;11.40;;;;;;;;;;4950877;29;20039;-79
2022/03/01 01:06:30;;;;;;;14.30;10.50;;;;;;;;;;4930120;28;20030;-78
2022/03/01 01:08:56;;;;;;;15.45;11.23;;;;;;;;;;4952105;28;20039;-79
2022/03/01 01:11:22;;;;;;;14.45;11.48;;;;;;;;;;4949436;28;20065;-79
2022/03/01 01:13:48;;;;;;;12.85;11.15;;;;;;;;;;4953362;29;20098;-78
2022/03/01 01:16:14;;;;;;;12.82;10.55;;;;;;;;;;4950416;29;20501;-79
2022/03/01 01:18:43;;;;;;;15.60;11.68;;;;;;;;;;4942931;29;20035;-78
2022/03/01 01:21:09;;;;;;;14.55;11.38;;;;;;;;;;4945506;29;20051;-78
2022/03/01 01:23:35;;;;;;;14.05;10.85;;;;;;;;;;4930229;29;20035;-78
2022/03/01 01:26:01;;;;;;;14.20;11.45;;;;;;;;;;4938027;29;20405;-78
2022/03/01 01:28:27;;;;;;;14.63;11.20;;;;;;;;;;4946687;29;20039;-78
2022/03/01 01:30:53;;;;;;;13.57;10.85;;;;;;;;;;4952899;29;20548;-78
2022/03/01 01:33:19;;;;;;;13.30;10.40;;;;;;;;;;4955695;29;20102;-78
2022/03/01 01:35:46;;;;;;;16.08;11.80;;;;;;;;;;4938786;29;20063;-78
2022/03/01 01:38:11;;;;;;;13.25;11.18;;;;;;;;;;4945085;29;20055;-78
2022/03/01 01:40:37;;;;;;;13.93;11.05;;;;;;;;;;4950464;29;20039;-78
2022/03/01 01:43:04;;;;;;;16.40;12.02;;;;;;;;;;4946623;29;20043;-79
2022/03/01 01:45:31;;;;;;;15.07;10.70;;;;;;;;;;4945645;29;20038;-79
2022/03/01 01:47:58;;;;;;;14.60;11.00;;;;;;;;;;4947624;29;20398;-79
2022/03/01 01:50:24;;;;;;;13.38;11.00;;;;;;;;;;4946360;28;20070;-79
2022/03/01 01:52:51;;;;;;;15.07;11.60;;;;;;;;;;4931509;29;20649;-79
2022/03/01 01:55:17;;;;;;;14.23;11.88;;;;;;;;;;4948708;29;20048;-79
2022/03/01 01:57:43;;;;;;;14.55;11.45;;;;;;;;;;4937457;29;20039;-79
2022/03/01 02:00:10;;;;;;;14.40;11.07;;;;;;;;;;4948215;29;20047;-79
2022/03/01 02:02:37;;;;;;;12.40;10.73;;;;;;;;;;4941977;29;20050;-79
2022/03/01 02:05:03;;;;;;;14.13;11.55;;;;;;;;;;4952458;29;20477;-79
2022/03/01 02:07:29;;;;;;;15.77;12.15;;;;;;;;;;4955123;29;20039;-79
2022/03/01 02:09:56;;;;;;;14.70;12.15;;;;;;;;;;4942257;29;20420;-79
2022/03/01 02:12:21;;;;;;;14.73;11.63;;;;;;;;;;4949718;29;20042;-79
2022/03/01 02:14:47;;;;;;;14.68;11.77;;;;;;;;;;4946158;29;20035;-79
2022/03/01 02:17:15;;;;;;;16.08;11.63;;;;;;;;;;4951962;29;20485;-79
2022/03/01 02:19:47;;;;;;;14.23;11.23;;;;;;;;;;4943649;29;20039;-79
2022/03/01 02:22:13;;;;;;;16.20;12.88;;;;;;;;;;4948468;28;20075;-79
2022/03/01 02:24:39;;;;;;;15.23;12.60;;;;;;;;;;4939327;29;20071;-79
2022/03/01 02:27:05;;;;;;;15.60;12.10;;;;;;;;;;4959394;28;20043;-81
2022/03/01 02:29:32;;;;;;;15.60;12.00;;;;;;;;;;4947178;29;20036;-79
2022/03/01 02:31:59;;;;;;;16.25;12.52;;;;;;;;;;4961184;28;20186;-79
2022/03/01 02:34:26;;;;;;;15.10;12.05;;;;;;;;;;4958937;28;20532;-79
2022/03/01 02:36:52;;;;;;;16.90;12.63;;;;;;;;;;4954459;29;20059;-79
2022/03/01 02:39:18;;;;;;;14.50;11.75;;;;;;;;;;4936893;29;20074;-79
2022/03/01 02:41:45;;;;;;;16.13;12.18;;;;;;;;;;4938197;29;20126;-79
2022/03/01 02:44:11;;;;;;;15.95;12.55;;;;;;;;;;4953711;29;20035;-79
2022/03/01 02:46:37;;;;;;;15.32;12.88;;;;;;;;;;4951397;29;20366;-79
2022/03/01 02:49:05;;;;;;;17.00;12.52;;;;;;;;;;4952454;28;20406;-79
2022/03/01 02:51:31;;;;;;;16.77;12.95;;;;;;;;;;4954307;29;20039;-79
2022/03/01 02:53:57;;;;;;;16.15;12.35;;;;;;;;;;4945494;29;20471;-79
2022/03/01 02:56:23;;;;;;;14.60;11.70;;;;;;;;;;4954657;29;20043;-79
2022/03/01 02:58:49;;;;;;;16.17;12.48;;;;;;;;;;4952060;28;20079;-79
2022/03/01 03:01:15;;;;;;;15.60;12.35;;;;;;;;;;4945978;28;20089;-79
2022/03/01 03:03:41;;;;;;;16.25;12.73;;;;;;;;;;4924571;29;20039;-79
2022/03/01 03:06:07;;;;;;;15.48;12.38;;;;;;;;;;4950079;29;20122;-79
2022/03/01 03:08:33;;;;;;;15.38;12.77;;;;;;;;;;4950613;29;20122;-79
2022/03/01 03:10:59;;;;;;;16.20;11.98;;;;;;;;;;4924676;29;20139;-79
2022/03/01 03:13:26;;;;;;;15.50;12.38;;;;;;;;;;4930735;29;20043;-79
2022/03/01 03:15:52;;;;;;;15.27;12.45;;;;;;;;;;4944514;29;20520;-79
2022/03/01 03:18:18;;;;;;;17.65;12.30;;;;;;;;;;4945318;29;20078;-79
2022/03/01 03:20:45;;;;;;;16.42;12.70;;;;;;;;;;4944112;28;20035;-79
2022/03/01 03:23:11;;;;;;;19.27;13.80;;;;;;;;;;4949595;28;20518;-79
2022/03/01 03:25:37;;;;;;;17.55;13.23;;;;;;;;;;4954975;28;20489;-79
2022/03/01 03:28:03;;;;;;;13.93;11.77;;;;;;;;;;4953238;29;20516;-79
2022/03/01 03:30:29;;;;;;;17.23;12.85;;;;;;;;;;4948004;29;20085;-79
2022/03/01 03:32:55;;;;;;;16.85;12.80;;;;;;;;;;4923802;29;20071;-80
2022/03/01 03:35:21;;;;;;;16.52;12.80;;;;;;;;;;4948818;29;20488;-80
2022/03/01 03:37:47;;;;;;;16.60;12.95;;;;;;;;;;4934024;29;20039;-80
2022/03/01 03:40:13;;;;;;;15.43;12.43;;;;;;;;;;4943915;29;20130;-80
2022/03/01 03:42:39;;;;;;;16.25;12.93;;;;;;;;;;4951212;29;20054;-80
2022/03/01 03:45:06;;;;;;;15.90;13.00;;;;;;;;;;4948985;29;20031;-80
2022/03/01 03:47:32;;;;;;;15.38;12.98;;;;;;;;;;4953768;29;20051;-80
2022/03/01 03:49:58;;;;;;;16.65;13.07;;;;;;;;;;4948622;29;20107;-80
2022/03/01 03:52:24;;;;;;;17.80;12.68;;;;;;;;;;4943907;28;20031;-80
2022/03/01 03:54:50;;;;;;;16.92;13.65;;;;;;;;;;4941673;28;20378;-80
2022/03/01 03:57:16;;;;;;;18.13;13.10;;;;;;;;;;4937313;29;20044;-80
2022/03/01 03:59:43;;;;;;;18.67;14.07;;;;;;;;;;4945567;29;20466;-80
2022/03/01 04:02:09;;;;;;;18.02;13.27;;;;;;;;;;4946083;29;20177;-80
2022/03/01 04:04:36;;;;;;;16.30;12.45;;;;;;;;;;4947935;29;20046;-80
2022/03/01 04:07:02;;;;;;;18.58;13.20;;;;;;;;;;4948831;29;20115;-80
2022/03/01 04:09:28;;;;;;;15.57;12.13;;;;;;;;;;4943130;29;20044;-80
2022/03/01 04:11:54;;;;;;;16.55;13.02;;;;;;;;;;4945888;29;20050;-80
2022/03/01 04:14:20;;;;;;;17.38;12.88;;;;;;;;;;4951237;29;20354;-80
2022/03/01 04:16:46;;;;;;;18.13;12.73;;;;;;;;;;4942342;29;20055;-80
2022/03/01 04:19:12;;;;;;;16.02;12.98;;;;;;;;;;4953186;29;20422;-81
2022/03/01 04:21:39;;;;;;;19.10;12.90;;;;;;;;;;4949942;29;20130;-80
2022/03/01 04:24:06;;;;;;;17.35;12.98;;;;;;;;;;4949614;29;20043;-80
2022/03/01 04:26:32;;;;;;;16.15;12.98;;;;;;;;;;4948100;29;20042;-80
2022/03/01 04:28:58;;;;;;;15.02;11.93;;;;;;;;;;4942049;29;20045;-80
2022/03/01 04:31:24;;;;;;;16.23;12.80;;;;;;;;;;4943392;29;20082;-80
2022/03/01 04:33:50;;;;;;;15.73;12.50;;;;;;;;;;4953323;29;20454;-80
2022/03/01 04:36:17;;;;;;;17.83;13.23;;;;;;;;;;4939661;29;20056;-81
2022/03/01 04:38:43;;;;;;;16.27;13.10;;;;;;;;;;4944046;29;20078;-81
2022/03/01 04:41:09;;;;;;;18.00;13.30;;;;;;;;;;4947263;28;20039;-80
2022/03/01 04:43:36;;;;;;;17.85;13.10;;;;;;;;;;4943953;29;20038;-80
2022/03/01 04:46:02;;;;;;;16.73;12.75;;;;;;;;;;4939010;29;20036;-80
2022/03/01 04:48:28;;;;;;;16.13;12.65;;;;;;;;;;4930302;29;20134;-80
2022/03/01 04:50:54;;;;;;;15.68;12.85;;;;;;;;;;4944814;29;20069;-81
2022/03/01 04:53:20;;;;;;;20.33;13.52;;;;;;;;;;4956986;29;20461;-80
2022/03/01 04:55:46;;;;;;;17.10;13.10;;;;;;;;;;4931660;29;20098;-80
2022/03/01 04:58:12;;;;;;;16.48;12.82;;;;;;;;;;4938705;29;20053;-81
2022/03/01 05:00:38;;;;;;;15.25;12.35;;;;;;;;;;4938375;29;20187;-81
2022/03/01 05:03:04;;;;;;;18.65;13.30;;;;;;;;;;4953242;29;20485;-81
2022/03/01 05:05:30;;;;;;;16.98;12.95;;;;;;;;;;4945582;29;20062;-81
2022/03/01 05:07:56;;;;;;;17.30;13.20;;;;;;;;;;4946064;29;20466;-80
2022/03/01 05:10:22;;;;;;;17.77;12.52;;;;;;;;;;4948979;28;20183;-80
2022/03/01 05:12:51;;;;;;;17.58;14.15;;;;;;;;;;4942366;29;20046;-80
2022/03/01 05:15:17;;;;;;;18.52;13.63;;;;;;;;;;4951911;29;20048;-80
2022/03/01 05:17:44;;;;;;;17.63;14.15;;;;;;;;;;4952333;29;20039;-80
2022/03/01 05:20:11;;;;;;;20.48;13.60;;;;;;;;;;4949634;29;20051;-80
2022/03/01 05:22:37;;;;;;;18.83;14.63;;;;;;;;;;4931912;29;20043;-80
2022/03/01 05:25:04;;;;;;;17.88;12.52;;;;;;;;;;4953261;29;20501;-80
2022/03/01 05:27:30;;;;;;;15.48;12.43;;;;;;;;;;4938618;29;20046;-80
2022/03/01 05:29:57;;;;;;;16.38;13.20;;;;;;;;;;4937158;29;20145;-80
2022/03/01 05:32:23;;;;;;;16.42;12.52;;;;;;;;;;4942083;29;20055;-80
2022/03/01 05:34:49;;;;;;;13.75;12.02;;;;;;;;;;4945777;29;20039;-80
2022/03/01 05:37:15;;;;;;;16.38;12.80;;;;;;;;;;4949530;29;20054;-79
2022/03/01 05:39:41;;;;;;;17.42;12.75;;;;;;;;;;4949537;28;20050;-79
2022/03/01 05:42:08;;;;;;;14.88;12.85;;;;;;;;;;4936159;29;20089;-79
2022/03/01 05:44:34;;;;;;;16.90;13.38;;;;;;;;;;4952376;29;20051;-79
2022/03/01 05:47:00;;;;;;;17.00;13.38;;;;;;;;;;4956377;28;20035;-79
2022/03/01 05:49:26;;;;;;;16.65;13.30;;;;;;;;;;4948805;29;20028;-79
2022/03/01 05:51:52;;;;;;;18.30;13.27;;;;;;;;;;4951129;28;20049;-79
2022/03/01 05:54:19;;;;;;;16.40;13.13;;;;;;;;;;4951002;29;20130;-79
2022/03/01 05:56:45;;;;;;;17.30;13.13;;;;;;;;;;4950828;28;20567;-80
2022/03/01 05:59:11;;;;;;;17.17;13.40;;;;;;;;;;4953687;29;20047;-80
2022/03/01 06:01:37;;;;;;;17.83;14.10;;;;;;;;;;4946919;29;20050;-80
2022/03/01 06:04:03;;;;;;;15.95;13.05;;;;;;;;;;4951964;29;20071;-80
2022/03/01 06:06:29;;;;;;;19.67;13.10;;;;;;;;;;4947564;29;20075;-80
2022/03/01 06:08:54;;;;;;;17.30;12.18;;;;;;;;;;4952222;28;20093;-80
2022/03/01 06:11:21;;;;;;;15.25;12.65;;;;;;;;;;4949367;29;20077;-79
2022/03/01 06:13:47;;;;;;;18.67;13.30;;;;;;;;;;4951646;29;20043;-80
2022/03/01 06:16:13;;;;;;;19.52;13.77;;;;;;;;;;4946702;29;20541;-80
2022/03/01 06:18:38;;;;;;;16.70;13.68;;;;;;;;;;4948562;29;20066;-80
2022/03/01 06:21:05;;;;;;;17.75;13.05;;;;;;;;;;4950089;29;20040;-80
2022/03/01 06:23:32;;;;;;;17.23;12.55;;;;;;;;;;4940242;29;20375;-80
2022/03/01 06:25:58;;;;;;;16.48;12.95;;;;;;;;;;4952818;29;20508;-80
2022/03/01 06:28:24;;;;;;;17.63;13.18;;;;;;;;;;4944425;29;20051;-80
2022/03/01 06:30:50;;;;;;;17.23;13.32;;;;;;;;;;4951986;29;20050;-80
2022/03/01 06:33:19;;;;;;;20.50;13.25;;;;;;;;;;4954010;29;20047;-80
2022/03/01 06:35:46;;;;;;;16.35;12.98;;;;;;;;;;4946909;29;20061;-79
2022/03/01 06:38:12;;;;;;;17.23;12.57;;;;;;;;;;4947293;29;20058;-80
2022/03/01 06:40:38;;;;;;;15.40;12.70;;;;;;;;;;4948871;28;20510;-80
2022/03/01 06:43:04;;;;;;;19.98;13.15;;;;;;;;;;4947549;29;20134;-80
2022/03/01 06:45:32;;;;;;;18.30;13.70;;;;;;;;;;4922069;29;20390;-80
2022/03/01 06:47:58;;;;;;;18.45;13.93;;;;;;;;;;4933608;29;20255;-80
2022/03/01 06:50:25;;;;;;;17.38;13.40;;;;;;;;;;4933100;29;20402;-80
2022/03/01 06:52:51;;;;;;;16.52;12.85;;;;;;;;;;4953243;29;20055;-80
2022/03/01 06:55:17;;;;;;;16.35;13.00;;;;;;;;;;4947571;29;20849;-80
2022/03/01 06:57:44;;;;;;;17.25;14.02;;;;;;;;;;4935322;29;20398;-80
2022/03/01 07:00:10;;;;;;;18.48;14.57;;;;;;;;;;4930432;29;20035;-80
2022/03/01 07:02:38;;;;;;;15.10;13.05;;;;;;;;;;4949564;29;20607;-80
2022/03/01 07:05:08;;;;;;;17.15;13.30;;;;;;;;;;4936097;29;20063;-80
2022/03/01 07:07:34;;;;;;;20.92;14.63;;;;;;;;;;4953617;28;20047;-80
2022/03/01 07:10:01;;;;;;;17.02;13.88;;;;;;;;;;4953405;29;20035;-80
2022/03/01 07:12:27;;;;;;;17.63;14.95;;;;;;;;;;4953243;29;20039;-80
2022/03/01 07:14:53;;;;;;;17.50;13.65;;;;;;;;;;4944579;28;20054;-79
2022/03/01 07:17:19;;;;;;;18.73;14.50;;;;;;;;;;4953785;29;20639;-80
2022/03/01 07:19:45;;;;;;;18.00;14.18;;;;;;;;;;4953664;29;20055;-80
2022/03/01 07:22:11;;;;;;;18.00;14.30;;;;;;;;;;4939915;29;20075;-80
2022/03/01 07:24:37;;;;;;;16.83;14.35;;;;;;;;;;4947145;29;20486;-80
2022/03/01 07:27:03;;;;;;;18.10;14.80;;;;;;;;;;4919968;29;20430;-80
2022/03/01 07:29:30;;;;;;;19.38;15.20;;;;;;;;;;4950883;29;20043;-80
2022/03/01 07:31:57;;;;;;;17.77;14.27;;;;;;;;;;4953152;28;20076;-80
2022/03/01 07:34:23;;;;;;;19.73;14.18;;;;;;;;;;4953522;29;20043;-80
2022/03/01 07:36:49;;;;;;;18.80;14.48;;;;;;;;;;4940815;29;20386;-79
2022/03/01 07:39:15;;;;;;;18.42;14.70;;;;;;;;;;4953830;29;20405;-79
2022/03/01 07:41:41;;;;;;;19.17;15.45;;;;;;;;;;4936336;29;20051;-80
2022/03/01 07:44:07;;;;;;;18.98;15.25;;;;;;;;;;4942201;29;20146;-80
2022/03/01 07:46:33;;;;;;;20.67;15.35;;;;;;;;;;4936380;29;20149;-80
2022/03/01 07:48:59;;;;;;;17.40;13.85;;;;;;;;;;4945345;29;20047;-79
2022/03/01 07:51:25;;;;;;;17.17;14.48;;;;;;;;;;4953532;29;20039;-79
2022/03/01 07:53:51;;;;;;;19.55;15.02;;;;;;;;;;4932263;29;20445;-79
2022/03/01 07:56:20;;;;;;;18.00;14.57;;;;;;;;;;4941174;29;20044;-80
2022/03/01 07:58:46;;;;;;;17.60;13.98;;;;;;;;;;4930239;29;20466;-79
2022/03/01 08:01:12;;;;;;;17.13;14.50;;;;;;;;;;4935448;29;20068;-80
2022/03/01 08:03:38;;;;;;;21.38;13.88;;;;;;;;;;4948553;29;20057;-79
2022/03/01 08:06:05;;;;;;;19.15;15.38;;;;;;;;;;4923312;29;20039;-80
2022/03/01 08:08:31;;;;;;;18.02;14.65;;;;;;;;;;4944162;29;20036;-80
2022/03/01 08:10:57;;;;;;;18.15;14.38;;;;;;;;;;4925000;29;20474;-80
2022/03/01 08:13:24;;;;;;;18.52;15.40;;;;;;;;;;4926112;29;20127;-79
2022/03/01 08:15:50;;;;;;;17.27;13.80;;;;;;;;;;4933290;29;20035;-80
2022/03/01 08:18:16;;;;;;;17.20;14.05;;;;;;;;;;4952964;29;20039;-80
2022/03/01 08:20:42;;;;;;;15.43;13.02;;;;;;;;;;4950801;28;20035;-80
2022/03/01 08:23:08;;;;;;;18.65;14.38;;;;;;;;;;4952393;29;20050;-79
2022/03/01 08:25:34;;;;;;;18.23;14.18;;;;;;;;;;4935518;29;20043;-80
2022/03/01 08:28:00;;;;;;;17.73;14.10;;;;;;;;;;4948570;28;20056;-80
2022/03/01 08:30:27;;;;;;;16.35;13.63;;;;;;;;;;4933820;29;20054;-80
2022/03/01 08:32:53;;;;;;;18.33;13.95;;;;;;;;;;4951946;29;20051;-80
2022/03/01 08:35:19;;;;;;;18.52;14.27;;;;;;;;;;4953453;29;20386;-81
2022/03/01 08:37:45;;;;;;;17.77;14.00;;;;;;;;;;4940897;29;20500;-81
2022/03/01 08:40:12;;;;;;;18.42;13.13;;;;;;;;;;4953633;29;20175;-79
2022/03/01 08:42:38;;;;;;;19.23;12.88;;;;;;;;;;4933982;29;20058;-79
2022/03/01 08:45:05;;;;;;;18.38;12.73;;;;;;;;;;4950914;28;20031;-80
2022/03/01 08:47:31;;;;;;;15.60;12.63;;;;;;;;;;4939853;29;20069;-80
2022/03/01 08:49:57;;;;;;;16.58;12.95;;;;;;;;;;4936767;23;20581;-84
2022/03/01 08:52:23;;;;;;;15.82;12.55;;;;;;;;;;4956743;28;20050;-84
2022/03/01 08:54:49;;;;;;;15.55;12.55;;;;;;;;;;4978677;28;20243;-84
2022/03/01 08:57:15;;;;;;;15.05;11.95;;;;;;;;;;4972612;28;20580;-83
2022/03/01 08:59:41;;;;;;;16.05;13.20;;;;;;;;;;4984335;28;20132;-83
2022/03/01 09:02:08;;;;;;;15.27;11.65;;;;;;;;;;4984992;28;20645;-83
2022/03/01 09:04:34;;;;;;;17.20;13.40;;;;;;;;;;4962757;28;20427;-83
2022/03/01 09:07:00;;;;;;;16.35;13.13;;;;;;;;;;4976247;28;20042;-83
2022/03/01 09:09:26;;;;;;;15.88;12.50;;;;;;;;;;4977530;28;20034;-83
2022/03/01 09:11:52;;;;;;;17.60;11.95;;;;;;;;;;4979092;28;20038;-83
2022/03/01 09:14:18;;;;;;;15.63;12.27;;;;;;;;;;4987956;28;20049;-83
2022/03/01 09:16:44;;;;;;;16.25;12.32;;;;;;;;;;4977415;28;20192;-82
2022/03/01 09:19:10;;;;;;;15.25;12.45;;;;;;;;;;4979238;28;20483;-83
2022/03/01 09:21:37;;;;;;;14.10;11.80;;;;;;;;;;4969576;28;20038;-82
2022/03/01 09:24:03;;;;;;;14.40;12.27;;;;;;;;;;4971021;28;20515;-82
2022/03/01 09:26:29;;;;;;;16.55;13.38;;;;;;;;;;4963474;28;20829;-83
2022/03/01 09:28:55;;;;;;;14.73;11.52;;;;;;;;;;4963283;28;20042;-82
2022/03/01 09:31:21;;;;;;;16.55;12.55;;;;;;;;;;4980125;28;20116;-83
2022/03/01 09:33:47;;;;;;;15.05;12.23;;;;;;;;;;4986813;28;20038;-83
2022/03/01 09:36:13;;;;;;;15.80;12.68;;;;;;;;;;4961616;28;20050;-83
2022/03/01 09:38:40;;;;;;;16.13;12.30;;;;;;;;;;4979048;28;20071;-82
2022/03/01 09:41:06;;;;;;;14.30;12.50;;;;;;;;;;4978536;28;20045;-83
2022/03/01 09:43:36;;;;;;;15.35;12.35;;;;;;;;;;4967912;28;20058;-83
2022/03/01 09:46:02;;;;;;;15.10;12.88;;;;;;;;;;4968997;28;20045;-82
2022/03/01 09:48:28;;;;;;;14.38;11.85;;;;;;;;;;4971735;28;20042;-81
2022/03/01 09:50:55;;;;;;;14.23;11.80;;;;;;;;;;4971447;28;20058;-81
2022/03/01 09:53:21;;;;;;;13.90;12.13;;;;;;;;;;4971108;28;20054;-81
2022/03/01 09:55:47;;;;;;;13.23;11.65;;;;;;;;;;4967612;28;20049;-81
2022/03/01 09:58:13;;;;;;;13.00;11.48;;;;;;;;;;4975045;28;20124;-81
2022/03/01 10:00:39;;;;;;;16.75;11.65;;;;;;;;;;4977060;28;20154;-81
2022/03/01 10:03:08;;;;;;;13.63;11.38;;;;;;;;;;4984661;28;20129;-81
2022/03/01 10:05:38;;;;;;;14.68;12.50;;;;;;;;;;4978750;28;20030;-81
2022/03/01 10:08:13;;;;;;;16.67;12.55;;;;;;;;;;4960784;28;20042;-81
2022/03/01 10:10:43;;;;;;;16.42;12.30;;;;;;;;;;4958182;28;20043;-81
2022/03/01 10:13:09;;;;;;;13.68;11.48;;;;;;;;;;4965716;28;20061;-81
2022/03/01 10:15:36;;;;;;;14.63;12.65;;;;;;;;;;4975874;28;20385;-81
2022/03/01 10:18:12;;;;;;;17.83;12.82;;;;;;;;;;4973206;28;20137;-81
2022/03/01 10:20:44;;;;;;;13.85;11.27;;;;;;;;;;4965711;28;20062;-81
2022/03/01 10:23:10;;;;;;;15.73;12.43;;;;;;;;;;4975331;28;20488;-81
2022/03/01 10:25:39;;;;;;;15.02;11.82;;;;;;;;;;4975561;28;20034;-81
2022/03/01 10:28:05;;;;;;;14.80;12.15;;;;;;;;;;4978261;28;20092;-81
2022/03/01 10:30:35;;;;;;;14.85;11.88;;;;;;;;;;4974576;28;20073;-81
2022/03/01 10:33:05;;;;;;;13.18;11.75;;;;;;;;;;4970361;28;20078;-81
2022/03/01 10:35:31;;;;;;;14.50;12.30;;;;;;;;;;4966758;28;20377;-81
2022/03/01 10:37:57;;;;;;;16.45;12.32;;;;;;;;;;4966857;28;20053;-81
2022/03/01 10:40:24;;;;;;;14.95;12.70;;;;;;;;;;4979369;28;20046;-81
2022/03/01 10:42:59;;;;;;;14.73;11.73;;;;;;;;;;4957836;28;20057;-80
2022/03/01 10:45:36;;;;;;;17.02;11.95;;;;;;;;;;4970518;28;20049;-80
2022/03/01 10:48:03;;;;;;;14.88;12.18;;;;;;;;;;4959730;28;20050;-81
2022/03/01 10:50:29;;;;;;;14.95;11.77;;;;;;;;;;4966254;28;20099;-80
2022/03/01 10:52:55;;;;;;;13.57;11.52;;;;;;;;;;4970280;28;20074;-80
2022/03/01 10:55:25;;;;;;;12.75;11.35;;;;;;;;;;4975478;28;20045;-80
2022/03/01 10:57:58;;;;;;;14.00;11.35;;;;;;;;;;4959757;28;20115;-80
2022/03/01 11:00:24;;;;;;;14.30;11.70;;;;;;;;;;4975242;28;20042;-80
2022/03/01 11:02:50;;;;;;;14.15;11.77;;;;;;;;;;4959201;28;20045;-80
2022/03/01 11:05:16;;;;;;;16.08;13.10;;;;;;;;;;4957616;28;20380;-81
2022/03/01 11:07:44;;;;;;;14.20;12.70;;;;;;;;;;4972268;28;20185;-80
2022/03/01 11:10:12;;;;;;;16.90;14.13;;;;;;;;;;4973415;28;20180;-80
2022/03/01 11:12:38;;;;;;;14.48;12.70;;;;;;;;;;4976481;28;20059;-80
2022/03/01 11:15:21;;;;;;;16.30;12.43;;;;;;;;;;4974525;28;20452;-81
2022/03/01 11:17:55;;;;;;;15.27;12.90;;;;;;;;;;4981778;28;20345;-80
2022/03/01 11:20:27;;;;;;;14.18;12.68;;;;;;;;;;4970819;28;20053;-80
2022/03/01 11:22:59;;;;;;;14.50;12.13;;;;;;;;;;4972283;28;20042;-80
2022/03/01 11:25:25;;;;;;;;;;;;;;;;;;4962736;28;20042;-81
2022/03/01 11:27:52;;;;;;;16.05;12.20;;;;;;;;;;4974892;28;20535;-80
2022/03/01 11:30:25;;;;;;;15.02;12.93;;;;;;;;;;4974249;28;20392;-80
2022/03/01 11:32:54;;;;;;;14.40;12.68;;;;;;;;;;4973866;28;20035;-80
2022/03/01 11:35:22;;;;;;;15.52;13.05;;;;;;;;;;4974074;28;20120;-80
2022/03/01 11:37:58;;;;;;;15.00;13.13;;;;;;;;;;4975285;28;20400;-81
2022/03/01 11:40:24;;;;;;;17.45;13.85;;;;;;;;;;4958992;28;20044;-81
2022/03/01 11:42:51;;;;;;;16.95;13.20;;;;;;;;;;4976270;28;20046;-80
2022/03/01 11:45:17;;;;;;;15.88;13.05;;;;;;;;;;4974891;28;20567;-81
2022/03/01 11:47:43;;;;;;;16.13;12.57;;;;;;;;;;4978427;28;20034;-80
2022/03/01 11:50:11;;;;;;;16.85;13.88;;;;;;;;;;4964962;28;20058;-80
2022/03/01 11:52:48;;;;;;;16.65;13.27;;;;;;;;;;4971329;28;20055;-80
2022/03/01 11:55:14;;;;;;;13.98;11.93;;;;;;;;;;4954427;28;20038;-80
2022/03/01 11:57:40;;;;;;;16.08;13.05;;;;;;;;;;4969957;28;20046;-80
2022/03/01 12:00:06;;;;;;;15.52;12.85;;;;;;;;;;4969018;28;20038;-80
2022/03/01 12:02:33;;;;;;;15.95;13.07;;;;;;;;;;4974492;28;20089;-80
2022/03/01 12:05:01;;;;;;;14.85;13.32;;;;;;;;;;4968405;28;20087;-80
2022/03/01 12:07:30;;;;;;;14.70;13.13;;;;;;;;;;4973741;28;20041;-80
2022/03/01 12:10:00;;;;;;;16.05;13.57;;;;;;;;;;4974538;28;20038;-81
2022/03/01 12:12:34;;;;;;;19.27;13.45;;;;;;;;;;4971053;28;20538;-81
2022/03/01 12:15:00;;;;;;;16.35;13.25;;;;;;;;;;4972588;28;20053;-81
2022/03/01 12:17:26;;;;;;;16.77;13.48;;;;;;;;;;4974198;28;20121;-81
2022/03/01 12:20:01;;;;;;;15.52;13.27;;;;;;;;;;4974396;28;20141;-80
2022/03/01 12:22:27;;;;;;;16.13;14.00;;;;;;;;;;4967066;28;20034;-80
2022/03/01 12:24:56;;;;;;;14.35;12.77;;;;;;;;;;4967599;28;20522;-80
2022/03/01 12:27:22;;;;;;;15.95;13.50;;;;;;;;;;4974792;28;20500;-80
2022/03/01 12:29:51;;;;;;;14.90;13.40;;;;;;;;;;4974215;28;20427;-81
2022/03/01 12:32:19;;;;;;;15.75;14.00;;;;;;;;;;4987170;28;20121;-80
2022/03/01 12:34:46;;;;;;;14.15;12.65;;;;;;;;;;4974397;28;20384;-80
2022/03/01 12:37:18;;;;;;;14.02;12.50;;;;;;;;;;4972747;28;20107;-80
2022/03/01 12:39:45;;;;;;;15.23;13.52;;;;;;;;;;4968748;28;20057;-80
2022/03/01 12:42:11;;;;;;;17.40;13.60;;;;;;;;;;4972045;28;20078;-79
2022/03/01 12:44:37;;;;;;;15.65;13.40;;;;;;;;;;4960940;28;20091;-79
2022/03/01 12:47:04;;;;;;;14.65;12.40;;;;;;;;;;4980336;28;20045;-79
2022/03/01 12:49:33;;;;;;;15.23;13.35;;;;;;;;;;4978534;28;20050;-80
2022/03/01 12:51:59;;;;;;;17.20;14.02;;;;;;;;;;4968332;28;20069;-80
2022/03/01 12:54:27;;;;;;;17.20;14.10;;;;;;;;;;4967358;28;20523;-81
2022/03/01 12:56:54;;;;;;;17.17;13.65;;;;;;;;;;4968290;28;20047;-81
2022/03/01 12:59:22;;;;;;;15.32;13.00;;;;;;;;;;4973692;28;20058;-81
2022/03/01 13:01:52;;;;;;;16.67;13.20;;;;;;;;;;4979591;28;20038;-81
2022/03/01 13:04:21;;;;;;;15.18;13.32;;;;;;;;;;4973385;28;20044;-82
2022/03/01 13:06:48;;;;;;;18.10;15.32;;;;;;;;;;4973613;28;20049;-81
2022/03/01 13:09:14;;;;;;;17.33;13.73;;;;;;;;;;4975398;28;20124;-82
2022/03/01 13:11:40;;;;;;;15.90;14.07;;;;;;;;;;4978088;28;20774;-81
2022/03/01 13:14:12;;;;;;;16.48;14.68;;;;;;;;;;4970860;28;20052;-82
2022/03/01 13:16:40;;;;;;;16.60;14.80;;;;;;;;;;4978804;28;20054;-81
2022/03/01 13:19:07;;;;;;;16.88;15.05;;;;;;;;;;4975274;28;20502;-81
2022/03/01 13:21:45;;;;;;;17.40;14.32;;;;;;;;;;4975034;28;20130;-81
2022/03/01 13:24:18;;;;;;;16.63;14.02;;;;;;;;;;4962117;28;20132;-82
2022/03/01 13:26:45;;;;;;;16.55;13.82;;;;;;;;;;4975930;28;20129;-81
2022/03/01 13:29:13;;;;;;;15.27;12.77;;;;;;;;;;4969914;28;20042;-81
2022/03/01 13:31:40;;;;;;;17.98;14.52;;;;;;;;;;4980576;28;20373;-81
2022/03/01 13:34:06;;;;;;;19.58;14.32;;;;;;;;;;4978166;28;20046;-82
2022/03/01 13:36:34;;;;;;;17.83;14.30;;;;;;;;;;4976601;28;20149;-81
2022/03/01 13:39:03;;;;;;;17.35;14.98;;;;;;;;;;4959509;28;20383;-81
2022/03/01 13:41:33;;;;;;;16.67;14.15;;;;;;;;;;4971773;28;20046;-82
2022/03/01 13:44:14;;;;;;;17.95;14.32;;;;;;;;;;4961084;28;20101;-82
2022/03/01 13:46:40;;;;;;;18.67;14.43;;;;;;;;;;4964533;28;20100;-81
2022/03/01 13:49:07;;;;;;;17.48;14.95;;;;;;;;;;4977219;28;20117;-81
2022/03/01 13:51:34;;;;;;;16.75;14.35;;;;;;;;;;4971840;28;20046;-82
2022/03/01 13:54:09;;;;;;;17.95;14.55;;;;;;;;;;4961859;28;20065;-82
2022/03/01 13:56:41;;;;;;;17.40;14.15;;;;;;;;;;4973958;28;20105;-82
2022/03/01 13:59:18;;;;;;;16.33;13.55;;;;;;;;;;4949360;28;20155;-81
2022/03/01 14:01:48;;;;;;;17.42;14.07;;;;;;;;;;4972987;28;20034;-81
2022/03/01 14:04:14;;;;;;;18.60;14.75;;;;;;;;;;4961921;28;20065;-81
2022/03/01 14:06:50;;;;;;;16.67;14.38;;;;;;;;;;4978142;28;20046;-81
2022/03/01 14:09:16;;;;;;;15.65;13.93;;;;;;;;;;4978447;28;20352;-82
2022/03/01 14:11:51;;;;;;;16.20;13.23;;;;;;;;;;4962360;28;20042;-82
2022/03/01 14:14:18;;;;;;;15.43;13.65;;;;;;;;;;4956482;28;20037;-81
2022/03/01 14:16:44;;;;;;;17.10;14.25;;;;;;;;;;4967641;28;20511;-81